createdAt,value
2019-01-11T00:00:00.640Z,0
2019-01-11T00:01:10.068Z,0
2019-01-11T00:02:19.731Z,0
2019-01-11T00:03:29.155Z,0
2019-01-11T00:04:38.329Z,0
2019-01-11T00:05:47.753Z,0
2019-01-11T00:06:57.182Z,0
2019-01-11T00:08:07.114Z,0
2019-01-11T00:09:16.782Z,0
2019-01-11T00:10:26.445Z,0
2019-01-11T00:11:35.863Z,0
2019-01-11T00:12:45.551Z,0
2019-01-11T00:13:55.221Z,0
2019-01-11T00:15:04.913Z,0
2019-01-11T00:16:14.329Z,0
2019-01-11T00:17:24.274Z,0
2019-01-11T00:18:33.945Z,0
2019-01-11T00:19:43.875Z,0
2019-01-11T00:20:53.290Z,0
2019-01-11T00:22:02.711Z,0
2019-01-11T00:23:13.412Z,0
2019-01-11T00:24:23.339Z,0
2019-01-11T00:25:32.513Z,0
2019-01-11T00:26:42.183Z,0
2019-01-11T00:27:51.612Z,0
2019-01-11T00:29:01.280Z,0
2019-01-11T00:30:11.191Z,0
2019-01-11T00:31:20.613Z,0
2019-01-11T00:32:29.785Z,0
2019-01-11T00:33:39.452Z,0
2019-01-11T00:34:48.872Z,0
2019-01-11T00:35:58.290Z,0
2019-01-11T00:37:07.965Z,0
2019-01-11T00:38:17.638Z,0
2019-01-11T00:39:27.558Z,0
2019-01-11T00:40:36.970Z,0
2019-01-11T00:41:46.642Z,0
2019-01-11T00:42:56.557Z,0
2019-01-11T00:44:06.229Z,0
2019-01-11T00:45:15.907Z,0
2019-01-11T00:46:25.580Z,0
2019-01-11T00:47:35.503Z,0
2019-01-11T00:48:44.929Z,0
2019-01-11T00:49:54.613Z,0
2019-01-11T00:51:04.297Z,0
2019-01-11T00:52:13.967Z,0
2019-01-11T00:53:23.139Z,0
2019-01-11T00:54:32.558Z,0
2019-01-11T00:55:42.227Z,0
2019-01-11T00:56:51.905Z,0
2019-01-11T00:58:01.828Z,0
2019-01-11T00:59:11.496Z,0
2019-01-11T01:00:21.420Z,0
2019-01-11T01:01:31.090Z,0
2019-01-11T01:02:41.116Z,0
2019-01-11T01:03:51.041Z,0
2019-01-11T01:05:00.467Z,0
2019-01-11T01:06:10.136Z,0
2019-01-11T01:07:19.562Z,0
2019-01-11T01:08:35.065Z,0
2019-01-11T01:09:44.986Z,0
2019-01-11T01:10:54.171Z,0
2019-01-11T01:12:03.588Z,0
2019-01-11T01:13:13.255Z,0
2019-01-11T01:14:22.426Z,0
2019-01-11T01:15:32.096Z,0
2019-01-11T01:16:41.762Z,0
2019-01-11T01:17:51.439Z,0
2019-01-11T01:19:01.110Z,0
2019-01-11T01:20:11.029Z,0
2019-01-11T01:21:20.951Z,0
2019-01-11T01:22:30.122Z,0
2019-01-11T01:23:39.791Z,0
2019-01-11T01:24:49.210Z,0
2019-01-11T01:25:58.880Z,0
2019-01-11T01:27:08.836Z,0
2019-01-11T01:28:18.257Z,0
2019-01-11T01:29:28.178Z,0
2019-01-11T01:30:37.848Z,0
2019-01-11T01:31:47.767Z,0
2019-01-11T01:32:57.430Z,0
2019-01-11T01:34:07.110Z,0
2019-01-11T01:35:17.033Z,0
2019-01-11T01:36:26.753Z,0
2019-01-11T01:37:37.202Z,0
2019-01-11T01:38:46.617Z,0
2019-01-11T01:39:56.296Z,0
2019-01-11T01:41:06.213Z,0
2019-01-11T01:42:16.141Z,0
2019-01-11T01:43:25.561Z,0
2019-01-11T01:44:35.483Z,0
2019-01-11T01:45:45.151Z,0
2019-01-11T01:46:55.065Z,0
2019-01-11T01:48:04.750Z,0
2019-01-11T01:49:14.672Z,0
2019-01-11T01:50:24.094Z,0
2019-01-11T01:51:33.760Z,0
2019-01-11T01:52:43.183Z,0
2019-01-11T01:53:52.891Z,0
2019-01-11T01:55:02.570Z,0
2019-01-11T01:56:11.997Z,0
2019-01-11T01:57:21.420Z,0
2019-01-11T01:58:30.855Z,0
2019-01-11T01:59:40.768Z,0
2019-01-11T02:00:50.189Z,0
2019-01-11T02:01:59.867Z,0
2019-01-11T02:03:09.535Z,0
2019-01-11T02:04:18.963Z,0
2019-01-11T02:05:28.638Z,0
2019-01-11T02:06:38.058Z,0
2019-01-11T02:07:46.975Z,0
2019-01-11T02:08:56.647Z,0
2019-01-11T02:10:06.335Z,0
2019-01-11T02:11:16.049Z,0
2019-01-11T02:12:25.480Z,0
2019-01-11T02:13:34.905Z,0
2019-01-11T02:14:44.583Z,0
2019-01-11T02:15:54.260Z,0
2019-01-11T02:17:04.177Z,0
2019-01-11T02:18:13.852Z,0
2019-01-11T02:23:43.206Z,0
2019-01-11T02:24:52.622Z,0
2019-01-11T02:28:05.653Z,0
2019-01-11T02:29:15.323Z,0
2019-01-11T02:30:25.027Z,0
2019-01-11T02:31:34.200Z,0
2019-01-11T02:32:43.385Z,0
2019-01-11T02:33:53.309Z,0
2019-01-11T02:35:03.227Z,0
2019-01-11T02:36:12.402Z,0
2019-01-11T02:37:22.321Z,0
2019-01-11T02:38:32.436Z,0
2019-01-11T02:39:42.156Z,0
2019-01-11T02:40:51.838Z,0
2019-01-11T02:42:01.507Z,0
2019-01-11T02:43:11.445Z,0
2019-01-11T02:44:20.873Z,0
2019-01-11T02:45:30.542Z,0
2019-01-11T02:46:40.218Z,0
2019-01-11T02:47:50.135Z,0
2019-01-11T02:48:59.817Z,0
2019-01-11T02:50:09.250Z,0
2019-01-11T02:51:18.674Z,0
2019-01-11T02:52:28.365Z,0
2019-01-11T02:53:38.286Z,0
2019-01-11T02:54:47.717Z,0
2019-01-11T02:55:57.657Z,0
2019-01-11T02:57:07.585Z,0
2019-01-11T02:58:17.257Z,0
2019-01-11T02:59:26.926Z,0
2019-01-11T03:00:36.861Z,0
2019-01-11T03:01:46.554Z,0
2019-01-11T03:02:56.487Z,0
2019-01-11T03:04:06.403Z,0
2019-01-11T03:05:16.358Z,0
2019-01-11T03:06:26.026Z,0
2019-01-11T03:07:35.955Z,0
2019-01-11T03:08:45.878Z,0
2019-01-11T03:09:55.574Z,0
2019-01-11T03:11:05.246Z,0
2019-01-11T03:12:14.701Z,0
2019-01-11T03:13:24.629Z,0
2019-01-11T03:14:33.799Z,0
2019-01-11T03:15:43.469Z,0
2019-01-11T03:16:53.382Z,0
2019-01-11T03:18:03.050Z,0
2019-01-11T03:19:12.480Z,0
2019-01-11T03:20:22.154Z,0
2019-01-11T03:21:32.087Z,0
2019-01-11T03:22:41.511Z,0
2019-01-11T03:23:51.181Z,0
2019-01-11T03:25:01.102Z,0
2019-01-11T03:26:11.049Z,0
2019-01-11T03:27:20.713Z,0
2019-01-11T03:28:30.632Z,0
2019-01-11T03:29:41.623Z,0
2019-01-11T03:30:51.583Z,0
2019-01-11T03:32:01.522Z,0
2019-01-11T03:33:11.310Z,0
2019-01-11T03:34:21.252Z,0
2019-01-11T03:35:31.172Z,0
2019-01-11T03:36:40.852Z,0
2019-01-11T03:37:50.270Z,0
2019-01-11T03:38:59.955Z,0
2019-01-11T03:40:09.885Z,0
2019-01-11T03:41:19.554Z,0
2019-01-11T03:42:28.983Z,0
2019-01-11T03:43:38.932Z,0
2019-01-11T03:44:48.631Z,0
2019-01-11T03:45:58.561Z,0
2019-01-11T03:47:08.484Z,0
2019-01-11T03:48:18.405Z,0
2019-01-11T03:49:27.891Z,0
2019-01-11T03:50:37.815Z,0
2019-01-11T03:51:47.751Z,0
2019-01-11T03:52:57.680Z,0
2019-01-11T03:54:07.361Z,0
2019-01-11T03:55:17.038Z,0
2019-01-11T03:56:26.478Z,0
2019-01-11T03:57:36.145Z,0
2019-01-11T03:58:45.603Z,0
2019-01-11T03:59:55.276Z,0
2019-01-11T04:01:04.966Z,0
2019-01-11T04:02:14.645Z,0
2019-01-11T04:03:24.325Z,0
2019-01-11T04:04:34.012Z,0
2019-01-11T04:05:43.936Z,0
2019-01-11T04:06:53.606Z,0
2019-01-11T04:08:02.286Z,0
2019-01-11T04:09:11.962Z,0
2019-01-11T04:10:21.380Z,0
2019-01-11T04:11:31.050Z,0
2019-01-11T04:12:40.735Z,0
2019-01-11T04:13:50.650Z,0
2019-01-11T04:15:00.218Z,0
2019-01-11T04:16:10.149Z,0
2019-01-11T04:17:20.073Z,0
2019-01-11T04:18:30.000Z,0
2019-01-11T04:19:39.434Z,0
2019-01-11T04:20:48.857Z,0
2019-01-11T04:21:58.527Z,0
2019-01-11T04:23:08.452Z,0
2019-01-11T04:24:17.887Z,0
2019-01-11T04:25:27.316Z,0
2019-01-11T04:26:36.741Z,0
2019-01-11T04:27:46.664Z,0
2019-01-11T04:28:56.109Z,0
2019-01-11T04:30:05.535Z,0
2019-01-11T04:33:38.166Z,0
2019-01-11T04:34:47.606Z,0
2019-01-11T04:35:57.284Z,0
2019-01-11T04:37:06.964Z,0
2019-01-11T04:38:16.893Z,0
2019-01-11T04:39:26.072Z,0
2019-01-11T04:40:43.119Z,0
2019-01-11T04:41:53.046Z,0
2019-01-11T04:43:02.727Z,0
2019-01-11T04:44:12.408Z,0
2019-01-11T04:45:22.381Z,0
2019-01-11T04:46:32.054Z,0
2019-01-11T04:47:42.000Z,0
2019-01-11T04:48:51.456Z,0
2019-01-11T04:50:00.886Z,0
2019-01-11T04:51:10.824Z,0
2019-01-11T04:52:20.265Z,0
2019-01-11T04:53:29.947Z,0
2019-01-11T04:54:39.617Z,0
2019-01-11T04:55:49.039Z,0
2019-01-11T04:56:58.714Z,0
2019-01-11T04:58:09.253Z,0
2019-01-11T04:59:18.695Z,0
2019-01-11T05:00:28.388Z,0
2019-01-11T05:01:38.139Z,0
2019-01-11T05:02:47.819Z,0
2019-01-11T05:03:57.770Z,0
2019-01-11T05:05:07.692Z,0
2019-01-11T05:06:17.616Z,0
2019-01-11T05:07:27.539Z,0
2019-01-11T05:08:37.454Z,0
2019-01-11T05:09:47.131Z,0
2019-01-11T05:10:57.059Z,0
2019-01-11T05:12:06.980Z,0
2019-01-11T05:13:16.917Z,0
2019-01-11T05:14:26.836Z,0
2019-01-11T05:15:36.508Z,0
2019-01-11T05:16:48.919Z,0
2019-01-11T05:17:58.348Z,0
2019-01-11T05:19:08.033Z,0
2019-01-11T05:20:23.361Z,0
2019-01-11T05:21:33.282Z,0
2019-01-11T05:22:42.960Z,0
2019-01-11T05:23:52.886Z,0
2019-01-11T05:25:02.813Z,0
2019-01-11T05:26:12.484Z,0
2019-01-11T05:27:21.909Z,0
2019-01-11T05:28:31.332Z,0
2019-01-11T05:29:41.263Z,0
2019-01-11T05:30:50.687Z,0
2019-01-11T05:32:00.361Z,0
2019-01-11T05:33:10.025Z,0
2019-01-11T05:34:19.951Z,0
2019-01-11T05:35:29.638Z,0
2019-01-11T05:36:39.056Z,0
2019-01-11T05:37:48.773Z,0
2019-01-11T05:38:58.701Z,0
2019-01-11T05:40:08.625Z,0
2019-01-11T05:41:17.803Z,0
2019-01-11T05:42:26.966Z,0
2019-01-11T05:43:36.135Z,0
2019-01-11T05:44:46.079Z,0
2019-01-11T05:45:55.751Z,0
2019-01-11T05:47:05.176Z,0
2019-01-11T05:48:14.597Z,0
2019-01-11T05:49:24.513Z,0
2019-01-11T05:50:34.211Z,0
2019-01-11T05:51:43.702Z,0
2019-01-11T05:52:53.382Z,0
2019-01-11T05:54:03.054Z,0
2019-01-11T05:55:12.746Z,0
2019-01-11T05:56:22.675Z,0
2019-01-11T05:57:32.103Z,0
2019-01-11T05:58:42.023Z,0
2019-01-11T05:59:51.695Z,0
2019-01-11T06:01:01.124Z,0
2019-01-11T06:02:10.799Z,0
2019-01-11T06:03:20.728Z,0
2019-01-11T06:04:30.657Z,0
2019-01-11T06:05:40.604Z,0
2019-01-11T06:06:50.286Z,0
2019-01-11T06:08:00.219Z,0
2019-01-11T06:09:10.150Z,0
2019-01-11T06:10:19.836Z,0
2019-01-11T06:11:29.509Z,0
2019-01-11T06:12:38.931Z,0
2019-01-11T06:13:48.599Z,0
2019-01-11T06:14:58.045Z,0
2019-01-11T06:16:07.222Z,0
2019-01-11T06:17:17.148Z,0
2019-01-11T06:18:26.577Z,0
2019-01-11T06:19:36.013Z,0
2019-01-11T06:20:45.684Z,0
2019-01-11T06:21:55.108Z,0
2019-01-11T06:23:04.522Z,0
2019-01-11T06:24:14.191Z,0
2019-01-11T06:25:23.649Z,0
2019-01-11T06:26:33.062Z,0
2019-01-11T06:27:42.240Z,0
2019-01-11T06:28:51.412Z,0
2019-01-11T06:30:00.841Z,0
2019-01-11T06:31:10.260Z,0
2019-01-11T06:32:20.182Z,0
2019-01-11T06:33:29.374Z,0
2019-01-11T06:34:39.300Z,0
2019-01-11T06:35:49.226Z,0
2019-01-11T06:36:58.651Z,0
2019-01-11T06:38:08.081Z,0
2019-01-11T06:39:18.747Z,0
2019-01-11T06:40:28.415Z,0
2019-01-11T06:41:38.333Z,0
2019-01-11T06:42:48.265Z,0
2019-01-11T06:43:57.937Z,0
2019-01-11T06:45:07.616Z,0
2019-01-11T06:46:17.533Z,0
2019-01-11T06:47:28.048Z,0
2019-01-11T06:48:37.713Z,0
2019-01-11T06:49:47.391Z,0
2019-01-11T06:50:57.320Z,0
2019-01-11T06:52:06.499Z,0
2019-01-11T06:53:15.919Z,0
2019-01-11T06:54:25.345Z,0
2019-01-11T06:55:34.764Z,0
2019-01-11T06:56:44.434Z,0
2019-01-11T06:57:53.859Z,0
2019-01-11T06:59:03.796Z,0
2019-01-11T07:00:13.220Z,0
2019-01-11T07:01:22.891Z,0
2019-01-11T07:02:32.570Z,0
2019-01-11T07:03:42.681Z,0
2019-01-11T07:04:52.633Z,0
2019-01-11T07:06:02.559Z,0
2019-01-11T07:07:12.230Z,0
2019-01-11T07:08:22.153Z,0
2019-01-11T07:09:31.321Z,0
2019-01-11T07:10:40.740Z,0
2019-01-11T07:11:50.660Z,0
2019-01-11T07:13:00.088Z,0
2019-01-11T07:14:09.528Z,0
2019-01-11T07:15:19.452Z,0
2019-01-11T07:16:29.376Z,0
2019-01-11T07:17:38.544Z,0
2019-01-11T07:18:48.483Z,0
2019-01-11T07:19:58.158Z,0
2019-01-11T07:21:07.580Z,0
2019-01-11T07:22:17.254Z,0
2019-01-11T07:23:26.919Z,0
2019-01-11T07:24:36.334Z,0
2019-01-11T07:25:46.000Z,0
2019-01-11T07:26:55.714Z,0
2019-01-11T07:28:05.134Z,0
2019-01-11T07:29:15.052Z,0
2019-01-11T07:30:24.722Z,0
2019-01-11T07:31:34.143Z,0
2019-01-11T07:32:43.562Z,0
2019-01-11T07:33:52.985Z,0
2019-01-11T07:35:02.665Z,0
2019-01-11T07:36:12.129Z,5
2019-01-11T07:37:21.548Z,5
2019-01-11T07:38:31.241Z,5
2019-01-11T07:39:40.407Z,5
2019-01-11T07:40:50.076Z,5
2019-01-11T07:41:59.761Z,5
2019-01-11T07:43:09.434Z,5
2019-01-11T07:44:19.361Z,5
2019-01-11T07:45:29.278Z,5
2019-01-11T07:46:38.701Z,5
2019-01-11T07:47:48.126Z,5
2019-01-11T07:48:58.058Z,5
2019-01-11T07:50:07.483Z,5
2019-01-11T07:51:17.153Z,5
2019-01-11T07:52:26.325Z,5
2019-01-11T07:53:35.996Z,5
2019-01-11T07:54:45.427Z,5
2019-01-11T07:55:54.859Z,5
2019-01-11T07:57:04.286Z,5
2019-01-11T07:58:14.996Z,5
2019-01-11T07:59:24.921Z,5
2019-01-11T08:00:34.346Z,5
2019-01-11T08:01:43.525Z,5
2019-01-11T08:02:53.199Z,5
2019-01-11T08:04:03.123Z,5
2019-01-11T08:05:12.805Z,5
2019-01-11T08:06:22.227Z,10
2019-01-11T08:07:31.909Z,10
2019-01-11T08:08:41.345Z,10
2019-01-11T08:09:50.770Z,10
2019-01-11T08:11:00.698Z,10
2019-01-11T08:12:10.372Z,10
2019-01-11T08:13:19.804Z,10
2019-01-11T08:14:29.478Z,10
2019-01-11T08:15:39.407Z,10
2019-01-11T08:16:49.325Z,10
2019-01-11T08:17:59.263Z,5
2019-01-11T08:19:08.443Z,10
2019-01-11T08:20:18.377Z,10
2019-01-11T08:21:27.809Z,10
2019-01-11T08:22:37.727Z,10
2019-01-11T08:23:47.646Z,15
2019-01-11T08:24:57.354Z,15
2019-01-11T08:26:06.827Z,15
2019-01-11T08:27:16.763Z,15
2019-01-11T08:28:26.194Z,15
2019-01-11T08:29:36.131Z,20
2019-01-11T08:30:45.553Z,20
2019-01-11T08:31:55.477Z,20
2019-01-11T08:33:05.154Z,25
2019-01-11T08:34:15.081Z,25
2019-01-11T08:35:24.766Z,30
2019-01-11T08:36:34.450Z,30
2019-01-11T08:37:44.136Z,30
2019-01-11T08:38:53.308Z,30
2019-01-11T08:40:03.229Z,35
2019-01-11T08:41:12.654Z,35
2019-01-11T08:42:22.081Z,40
2019-01-11T08:43:31.508Z,35
2019-01-11T08:44:41.428Z,40
2019-01-11T08:45:50.852Z,35
2019-01-11T08:47:00.780Z,35
2019-01-11T08:48:10.703Z,35
2019-01-11T08:49:20.477Z,45
2019-01-11T08:50:29.899Z,40
2019-01-11T08:51:39.342Z,40
2019-01-11T08:52:48.762Z,40
2019-01-11T08:53:58.235Z,40
2019-01-11T08:55:07.661Z,45
2019-01-11T08:56:17.839Z,45
2019-01-11T08:57:27.510Z,40
2019-01-11T08:58:37.183Z,35
2019-01-11T08:59:46.604Z,30
2019-01-11T09:00:56.028Z,25
2019-01-11T09:02:05.961Z,30
2019-01-11T09:03:15.885Z,40
2019-01-11T09:04:25.579Z,35
2019-01-11T09:05:35.261Z,35
2019-01-11T09:06:44.935Z,40
2019-01-11T09:07:54.609Z,40
2019-01-11T09:09:04.531Z,40
2019-01-11T09:10:13.959Z,45
2019-01-11T09:11:23.380Z,40
2019-01-11T09:12:33.308Z,55
2019-01-11T09:13:43.232Z,70
2019-01-11T09:14:53.159Z,80
2019-01-11T09:16:02.830Z,95
2019-01-11T09:17:12.262Z,125
2019-01-11T09:18:22.189Z,115
2019-01-11T09:19:32.121Z,95
2019-01-11T09:20:42.048Z,85
2019-01-11T09:21:51.722Z,80
2019-01-11T09:23:01.404Z,85
2019-01-11T09:24:11.080Z,110
2019-01-11T09:25:20.753Z,110
2019-01-11T09:26:30.430Z,110
2019-01-11T09:27:39.847Z,95
2019-01-11T09:28:49.765Z,110
2019-01-11T09:29:59.441Z,100
2019-01-11T09:31:09.116Z,110
2019-01-11T09:32:18.294Z,95
2019-01-11T09:33:30.028Z,95
2019-01-11T09:34:39.717Z,90
2019-01-11T09:35:49.408Z,85
2019-01-11T09:36:59.435Z,85
2019-01-11T09:38:09.472Z,80
2019-01-11T09:39:19.229Z,75
2019-01-11T09:40:28.895Z,75
2019-01-11T09:41:38.859Z,75
2019-01-11T09:42:48.750Z,70
2019-01-11T09:43:58.179Z,60
2019-01-11T09:45:07.853Z,60
2019-01-11T09:46:17.321Z,70
2019-01-11T09:47:26.499Z,75
2019-01-11T09:48:36.457Z,90
2019-01-11T09:49:45.634Z,100
2019-01-11T09:50:55.064Z,115
2019-01-11T09:52:04.748Z,105
2019-01-11T09:53:14.171Z,115
2019-01-11T09:54:23.617Z,120
2019-01-11T09:55:33.299Z,115
2019-01-11T09:56:42.981Z,100
2019-01-11T09:57:52.904Z,75
2019-01-11T09:59:02.624Z,65
2019-01-11T10:00:12.338Z,65
2019-01-11T10:01:22.009Z,85
2019-01-11T10:02:31.889Z,90
2019-01-11T10:03:41.613Z,70
2019-01-11T10:04:51.536Z,75
2019-01-11T10:06:01.214Z,70
2019-01-11T10:07:11.135Z,70
2019-01-11T10:08:20.811Z,75
2019-01-11T10:09:30.236Z,85
2019-01-11T10:10:40.156Z,100
2019-01-11T10:11:49.336Z,95
2019-01-11T10:12:59.056Z,95
2019-01-11T10:14:08.477Z,90
2019-01-11T10:15:17.910Z,95
2019-01-11T10:16:28.566Z,95
2019-01-11T10:17:38.250Z,95
2019-01-11T10:18:47.681Z,100
2019-01-11T10:19:57.111Z,95
2019-01-11T10:21:06.781Z,90
2019-01-11T10:22:16.463Z,95
2019-01-11T10:23:26.379Z,90
2019-01-11T10:24:36.049Z,90
2019-01-11T10:25:45.974Z,90
2019-01-11T10:26:55.899Z,80
2019-01-11T10:28:05.822Z,90
2019-01-11T10:29:15.239Z,75
2019-01-11T10:30:25.177Z,80
2019-01-11T10:31:34.845Z,85
2019-01-11T10:32:44.525Z,80
2019-01-11T10:33:54.192Z,90
2019-01-11T10:35:04.113Z,70
2019-01-11T10:36:13.782Z,75
2019-01-11T10:37:23.204Z,90
2019-01-11T10:38:32.639Z,90
2019-01-11T10:39:42.568Z,100
2019-01-11T10:40:52.254Z,125
2019-01-11T10:42:02.177Z,100
2019-01-11T10:43:11.861Z,100
2019-01-11T10:44:21.286Z,120
2019-01-11T10:45:30.973Z,105
2019-01-11T10:46:40.405Z,140
2019-01-11T10:47:50.372Z,155
2019-01-11T10:49:00.298Z,125
2019-01-11T10:50:09.724Z,125
2019-01-11T10:51:21.519Z,140
2019-01-11T10:52:30.941Z,140
2019-01-11T10:53:40.626Z,110
2019-01-11T10:54:50.071Z,140
2019-01-11T10:55:59.994Z,170
2019-01-11T10:57:09.697Z,130
2019-01-11T10:58:19.368Z,115
2019-01-11T10:59:29.081Z,105
2019-01-11T11:00:40.293Z,90
2019-01-11T11:01:49.970Z,90
2019-01-11T11:02:59.889Z,75
2019-01-11T11:04:08.818Z,85
2019-01-11T11:05:18.243Z,85
2019-01-11T11:06:28.162Z,135
2019-01-11T11:07:37.586Z,135
2019-01-11T11:08:46.764Z,115
2019-01-11T11:09:55.942Z,110
2019-01-11T11:11:05.867Z,135
2019-01-11T11:12:15.539Z,100
2019-01-11T11:13:25.220Z,80
2019-01-11T11:14:34.917Z,95
2019-01-11T11:15:44.339Z,105
2019-01-11T11:16:54.264Z,110
2019-01-11T11:18:03.970Z,130
2019-01-11T11:19:13.395Z,125
2019-01-11T11:20:23.080Z,125
2019-01-11T11:21:37.132Z,115
2019-01-11T11:22:46.815Z,100
2019-01-11T11:24:01.002Z,90
2019-01-11T11:25:10.674Z,85
2019-01-11T11:26:20.352Z,90
2019-01-11T11:27:30.285Z,100
2019-01-11T11:28:40.219Z,90
2019-01-11T11:29:50.148Z,95
2019-01-11T11:31:01.700Z,90
2019-01-11T11:32:11.628Z,90
2019-01-11T11:33:21.310Z,95
2019-01-11T11:34:31.003Z,95
2019-01-11T11:35:40.441Z,90
2019-01-11T11:36:49.880Z,115
2019-01-11T11:37:59.061Z,140
2019-01-11T11:39:08.752Z,120
2019-01-11T11:40:18.179Z,90
2019-01-11T11:41:27.607Z,85
2019-01-11T11:42:37.053Z,85
2019-01-11T11:43:46.482Z,95
2019-01-11T11:44:55.911Z,75
2019-01-11T11:46:05.841Z,65
2019-01-11T11:47:15.023Z,90
2019-01-11T11:48:24.454Z,90
2019-01-11T11:49:33.886Z,85
2019-01-11T11:50:43.587Z,75
2019-01-11T11:51:53.288Z,95
2019-01-11T11:53:02.723Z,110
2019-01-11T11:54:11.651Z,130
2019-01-11T11:55:21.581Z,120
2019-01-11T11:56:30.769Z,115
2019-01-11T11:57:40.455Z,95
2019-01-11T11:58:49.882Z,105
2019-01-11T11:59:59.559Z,75
2019-01-11T12:01:09.247Z,65
2019-01-11T12:02:23.862Z,75
2019-01-11T12:03:33.048Z,75
2019-01-11T12:04:42.734Z,70
2019-01-11T12:05:51.925Z,90
2019-01-11T12:07:01.602Z,115
2019-01-11T12:08:11.528Z,115
2019-01-11T12:09:20.958Z,140
2019-01-11T12:10:30.414Z,115
2019-01-11T12:11:39.846Z,85
2019-01-11T12:12:49.294Z,85
2019-01-11T12:13:58.720Z,80
2019-01-11T12:15:08.665Z,60
2019-01-11T12:16:17.843Z,70
2019-01-11T12:17:27.770Z,60
2019-01-11T12:18:36.942Z,70
2019-01-11T12:19:46.904Z,65
2019-01-11T12:20:56.328Z,70
2019-01-11T12:22:11.218Z,65
2019-01-11T12:23:20.648Z,60
2019-01-11T12:24:30.572Z,65
2019-01-11T12:25:40.242Z,110
2019-01-11T12:26:49.172Z,95
2019-01-11T12:27:59.241Z,125
2019-01-11T12:29:09.164Z,145
2019-01-11T12:30:19.096Z,140
2019-01-11T12:31:28.770Z,180
2019-01-11T12:32:38.454Z,165
2019-01-11T12:33:47.880Z,145
2019-01-11T12:34:57.804Z,140
2019-01-11T12:36:07.477Z,150
2019-01-11T12:37:17.152Z,180
2019-01-11T12:38:27.072Z,230
2019-01-11T12:39:36.750Z,225
2019-01-11T12:40:46.428Z,205
2019-01-11T12:41:56.103Z,190
2019-01-11T12:43:06.029Z,120
2019-01-11T12:44:15.708Z,80
2019-01-11T12:45:25.142Z,90
2019-01-11T12:46:35.078Z,115
2019-01-11T12:47:45.019Z,140
2019-01-11T12:48:54.696Z,115
2019-01-11T12:50:04.625Z,125
2019-01-11T12:51:14.056Z,120
2019-01-11T12:52:23.728Z,125
2019-01-11T12:53:32.905Z,160
2019-01-11T12:54:42.585Z,155
2019-01-11T12:55:51.764Z,165
2019-01-11T12:57:01.687Z,175
2019-01-11T12:58:11.126Z,170
2019-01-11T12:59:20.816Z,170
2019-01-11T13:00:30.670Z,125
2019-01-11T13:01:40.111Z,115
2019-01-11T13:02:49.293Z,100
2019-01-11T13:03:59.227Z,120
2019-01-11T13:05:08.910Z,120
2019-01-11T13:06:18.594Z,140
2019-01-11T13:07:28.288Z,105
2019-01-11T13:08:37.960Z,85
2019-01-11T13:09:47.631Z,85
2019-01-11T13:10:57.556Z,85
2019-01-11T13:12:06.984Z,75
2019-01-11T13:13:16.666Z,110
2019-01-11T13:14:26.351Z,100
2019-01-11T13:15:35.793Z,90
2019-01-11T13:16:45.490Z,105
2019-01-11T13:17:54.960Z,85
2019-01-11T13:19:04.384Z,75
2019-01-11T13:20:14.357Z,60
2019-01-11T13:21:24.298Z,95
2019-01-11T13:22:34.265Z,155
2019-01-11T13:23:44.202Z,130
2019-01-11T13:24:54.122Z,130
2019-01-11T13:26:03.801Z,125
2019-01-11T13:27:13.730Z,85
2019-01-11T13:28:23.400Z,105
2019-01-11T13:29:32.823Z,110
2019-01-11T13:30:42.516Z,120
2019-01-11T13:31:52.196Z,135
2019-01-11T13:33:01.632Z,110
2019-01-11T13:34:11.064Z,85
2019-01-11T13:35:20.248Z,95
2019-01-11T13:36:30.267Z,85
2019-01-11T13:37:39.965Z,120
2019-01-11T13:38:49.889Z,85
2019-01-11T13:39:59.322Z,90
2019-01-11T13:41:09.243Z,100
2019-01-11T13:42:18.664Z,110
2019-01-11T13:43:28.344Z,105
2019-01-11T13:44:37.785Z,95
2019-01-11T13:45:47.207Z,95
2019-01-11T13:46:57.152Z,95
2019-01-11T13:48:06.832Z,105
2019-01-11T13:49:16.514Z,110
2019-01-11T13:50:25.938Z,120
2019-01-11T13:51:35.609Z,120
2019-01-11T13:52:45.544Z,110
2019-01-11T13:53:55.216Z,115
2019-01-11T13:55:04.989Z,115
2019-01-11T13:56:14.422Z,120
2019-01-11T13:57:24.107Z,115
2019-01-11T13:58:33.794Z,110
2019-01-11T13:59:48.739Z,105
2019-01-11T14:00:58.420Z,95
2019-01-11T14:02:08.093Z,100
2019-01-11T14:03:17.776Z,100
2019-01-11T14:04:26.967Z,90
2019-01-11T14:05:36.895Z,95
2019-01-11T14:06:46.880Z,100
2019-01-11T14:07:56.350Z,105
2019-01-11T14:09:06.025Z,95
2019-01-11T14:10:15.704Z,115
2019-01-11T14:11:25.134Z,115
2019-01-11T14:12:34.557Z,110
2019-01-11T14:13:44.482Z,110
2019-01-11T14:14:53.664Z,110
2019-01-11T14:16:03.347Z,115
2019-01-11T14:17:12.782Z,120
2019-01-11T14:18:22.208Z,125
2019-01-11T14:19:31.636Z,125
2019-01-11T14:20:41.317Z,110
2019-01-11T14:21:50.997Z,115
2019-01-11T14:23:00.725Z,110
2019-01-11T14:24:10.654Z,110
2019-01-11T14:25:21.689Z,115
2019-01-11T14:26:30.867Z,115
2019-01-11T14:27:40.805Z,110
2019-01-11T14:28:50.232Z,115
2019-01-11T14:29:59.654Z,115
2019-01-11T14:31:09.337Z,110
2019-01-11T14:32:19.011Z,110
2019-01-11T14:33:28.691Z,110
2019-01-11T14:34:38.414Z,110
2019-01-11T14:35:47.844Z,110
2019-01-11T14:36:57.913Z,100
2019-01-11T14:38:07.590Z,100
2019-01-11T14:39:17.275Z,100
2019-01-11T14:40:26.753Z,95
2019-01-11T14:41:36.680Z,75
2019-01-11T14:42:46.374Z,50
2019-01-11T14:43:55.549Z,35
2019-01-11T14:45:05.261Z,25
2019-01-11T14:46:15.192Z,25
2019-01-11T14:47:24.625Z,20
2019-01-11T14:48:34.308Z,10
2019-01-11T14:49:44.238Z,15
2019-01-11T14:50:54.168Z,20
2019-01-11T14:52:04.100Z,25
2019-01-11T14:53:14.037Z,20
2019-01-11T14:54:23.462Z,15
2019-01-11T14:55:32.890Z,10
2019-01-11T14:56:42.568Z,20
2019-01-11T14:57:52.257Z,20
2019-01-11T14:59:02.288Z,15
2019-01-11T15:00:11.710Z,20
2019-01-11T15:01:21.633Z,20
2019-01-11T15:02:31.054Z,30
2019-01-11T15:03:40.232Z,30
2019-01-11T15:04:49.910Z,30
2019-01-11T15:05:59.832Z,35
2019-01-11T15:07:09.550Z,45
2019-01-11T15:08:18.724Z,40
2019-01-11T15:09:28.146Z,35
2019-01-11T15:10:37.817Z,25
2019-01-11T15:11:47.530Z,25
2019-01-11T15:12:56.969Z,25
2019-01-11T15:14:06.483Z,35
2019-01-11T15:15:16.148Z,40
2019-01-11T15:16:26.075Z,45
2019-01-11T15:17:35.753Z,35
2019-01-11T15:18:45.671Z,25
2019-01-11T15:19:55.756Z,20
2019-01-11T15:21:05.427Z,20
2019-01-11T15:22:15.304Z,15
2019-01-11T15:23:25.234Z,10
2019-01-11T15:24:35.164Z,5
2019-01-11T15:25:44.948Z,5
2019-01-11T15:26:54.124Z,5
2019-01-11T15:28:03.560Z,5
2019-01-11T15:29:13.233Z,5
2019-01-11T15:30:22.661Z,5
2019-01-11T15:31:32.582Z,5
2019-01-11T15:32:42.514Z,5
2019-01-11T15:33:52.443Z,5
2019-01-11T15:35:02.134Z,5
2019-01-11T15:36:11.567Z,5
2019-01-11T15:37:21.246Z,5
2019-01-11T15:38:30.426Z,5
2019-01-11T15:39:39.853Z,5
2019-01-11T15:40:49.571Z,0
2019-01-11T15:41:59.242Z,0
2019-01-11T15:43:09.162Z,0
2019-01-11T15:44:19.092Z,0
2019-01-11T15:45:28.519Z,0
2019-01-11T15:46:38.441Z,0
2019-01-11T15:47:48.116Z,0
2019-01-11T15:48:57.542Z,0
2019-01-11T15:50:07.214Z,0
2019-01-11T15:51:16.886Z,0
2019-01-11T15:52:26.313Z,0
2019-01-11T15:53:37.466Z,0
2019-01-11T15:54:47.390Z,0
2019-01-11T15:55:56.665Z,0
2019-01-11T15:57:06.600Z,0
2019-01-11T15:58:16.283Z,0
2019-01-11T15:59:25.956Z,0
2019-01-11T16:00:35.639Z,0
2019-01-11T16:01:45.314Z,0
2019-01-11T16:02:55.257Z,0
2019-01-11T16:04:05.440Z,0
2019-01-11T16:05:15.112Z,0
2019-01-11T16:06:24.746Z,0
2019-01-11T16:07:34.378Z,0
2019-01-11T16:08:44.543Z,0
2019-01-11T16:09:54.363Z,0
2019-01-11T16:11:04.336Z,0
2019-01-11T16:12:14.006Z,0
2019-01-11T16:13:23.687Z,0
2019-01-11T16:14:33.614Z,0
2019-01-11T16:15:43.539Z,0
2019-01-11T16:16:53.468Z,0
2019-01-11T16:18:02.886Z,0
2019-01-11T16:19:12.811Z,0
2019-01-11T16:20:22.500Z,0
2019-01-11T16:21:32.174Z,0
2019-01-11T16:22:46.504Z,0
2019-01-11T16:23:55.937Z,0
2019-01-11T16:25:05.615Z,0
2019-01-11T16:26:15.284Z,0
2019-01-11T16:27:24.703Z,0
2019-01-11T16:28:34.375Z,0
2019-01-11T16:29:44.058Z,0
2019-01-11T16:30:53.531Z,0
2019-01-11T16:32:04.068Z,0
2019-01-11T16:33:13.503Z,0
2019-01-11T16:34:23.181Z,0
2019-01-11T16:35:33.102Z,0
2019-01-11T16:36:42.565Z,0
2019-01-11T16:37:52.490Z,0
2019-01-11T16:39:02.168Z,0
2019-01-11T16:40:12.096Z,0
2019-01-11T16:41:21.771Z,0
2019-01-11T16:42:31.750Z,0
2019-01-11T16:43:40.925Z,0
2019-01-11T16:44:50.841Z,0
2019-01-11T16:46:00.530Z,0
2019-01-11T16:47:10.466Z,0
2019-01-11T16:48:20.174Z,0
2019-01-11T16:49:29.845Z,0
2019-01-11T16:50:39.772Z,0
2019-01-11T16:51:48.951Z,0
2019-01-11T16:52:58.675Z,0
2019-01-11T16:54:08.594Z,0
2019-01-11T16:55:18.264Z,0
2019-01-11T16:56:28.554Z,0